Time;durP1;ratioP1;P1;durP2;ratioP2;P2;SDS_P1;SDS_P2;PMS_P1;PMS_P2;Temp;Humidity;BMP_temperature;BMP_pressure;BME280_temperature;BME280_humidity;BME280_pressure;Samples;Min_cycle;Max_cycle;Signal;HPM_P1;HPM_P2
2023/11/26 00:04:17;;;;;;;1.00;1.00;;;;;;;;;;10069975;28;20128;-71
2023/11/26 00:09:09;;;;;;;1.48;1.38;;;;;;;;;;10068185;28;20125;-71
2023/11/26 00:14:01;;;;;;;1.25;1.17;;;;;;;;;;10068591;28;20120;-71
2023/11/26 00:18:53;;;;;;;1.30;1.30;;;;;;;;;;10068276;28;20054;-71
2023/11/26 00:23:44;;;;;;;1.35;1.35;;;;;;;;;;10068290;28;20136;-71
2023/11/26 00:28:36;;;;;;;1.00;1.00;;;;;;;;;;10064808;28;20073;-71
2023/11/26 00:33:28;;;;;;;1.10;1.10;;;;;;;;;;10065104;28;20111;-71
2023/11/26 00:38:20;;;;;;;1.30;1.30;;;;;;;;;;10063614;28;20052;-71
2023/11/26 00:43:13;;;;;;;1.38;1.27;;;;;;;;;;10067760;28;20481;-71
2023/11/26 00:48:06;;;;;;;4.25;1.60;;;;;;;;;;10067609;28;20041;-71
2023/11/26 00:52:59;;;;;;;1.40;1.30;;;;;;;;;;10067184;28;20041;-71
2023/11/26 00:57:51;;;;;;;2.78;1.45;;;;;;;;;;10067192;28;20524;-71
2023/11/26 01:02:44;;;;;;;1.40;1.20;;;;;;;;;;10068569;28;20041;-71
2023/11/26 01:07:36;;;;;;;1.30;1.20;;;;;;;;;;10066713;28;20049;-71
2023/11/26 01:12:29;;;;;;;1.30;1.30;;;;;;;;;;10066063;28;20053;-71
2023/11/26 01:17:21;;;;;;;1.30;1.20;;;;;;;;;;10067606;28;20057;-71
2023/11/26 01:22:13;;;;;;;1.20;1.17;;;;;;;;;;10067585;28;20049;-71
2023/11/26 01:27:05;;;;;;;1.77;1.45;;;;;;;;;;10066111;28;20076;-71
2023/11/26 01:31:57;;;;;;;1.20;1.10;;;;;;;;;;10067301;28;20472;-71
2023/11/26 01:36:49;;;;;;;1.00;1.00;;;;;;;;;;10066839;28;20125;-72
2023/11/26 01:41:42;;;;;;;1.23;1.20;;;;;;;;;;10066957;28;20049;-71
2023/11/26 01:46:33;;;;;;;1.42;1.30;;;;;;;;;;10066909;28;20095;-71
2023/11/26 01:51:27;;;;;;;1.10;1.10;;;;;;;;;;10066563;28;20098;-71
2023/11/26 01:56:20;;;;;;;1.08;1.08;;;;;;;;;;10064935;28;20136;-71
2023/11/26 02:01:16;;;;;;;1.00;1.00;;;;;;;;;;10048864;28;20936;-71
2023/11/26 02:06:08;;;;;;;1.60;1.17;;;;;;;;;;10065954;28;20503;-72
2023/11/26 02:11:01;;;;;;;1.30;1.23;;;;;;;;;;10064221;28;20051;-71
2023/11/26 02:15:53;;;;;;;1.20;1.10;;;;;;;;;;10064155;28;20056;-71
2023/11/26 02:20:46;;;;;;;1.20;1.20;;;;;;;;;;10064485;28;20136;-71
2023/11/26 02:25:38;;;;;;;1.63;1.45;;;;;;;;;;10067223;28;20046;-71
2023/11/26 02:30:30;;;;;;;1.02;1.02;;;;;;;;;;10074294;28;20069;-71
2023/11/26 02:35:22;;;;;;;1.45;1.35;;;;;;;;;;10074138;28;20045;-71
2023/11/26 02:40:19;;;;;;;1.02;1.02;;;;;;;;;;10073950;28;20053;-71
2023/11/26 02:45:12;;;;;;;1.00;1.00;;;;;;;;;;10069424;28;20108;-71
2023/11/26 02:50:05;;;;;;;1.20;1.20;;;;;;;;;;10070622;28;20120;-71
2023/11/26 02:54:58;;;;;;;1.42;1.30;;;;;;;;;;10068748;28;20041;-71
2023/11/26 02:59:50;;;;;;;1.08;1.05;;;;;;;;;;10053399;28;20124;-71
2023/11/26 03:04:48;;;;;;;1.45;1.35;;;;;;;;;;10067846;28;20060;-70
2023/11/26 03:13:06;;;;;;;1.08;1.05;;;;;;;;;;10069713;28;20061;-71
2023/11/26 03:14:54;;;;;;;0.90;0.90;;;;;;;;;;10064286;28;20064;-71
2023/11/26 03:19:47;;;;;;;1.00;1.00;;;;;;;;;;10068671;28;20112;-71
2023/11/26 03:24:39;;;;;;;0.93;0.93;;;;;;;;;;10070355;28;20433;-71
2023/11/26 03:29:30;;;;;;;1.20;1.10;;;;;;;;;;10069755;28;20041;-71
2023/11/26 03:34:28;;;;;;;0.93;0.93;;;;;;;;;;10069132;28;20033;-71
2023/11/26 03:39:20;;;;;;;1.08;1.00;;;;;;;;;;10066229;28;20080;-71
2023/11/26 03:44:12;;;;;;;1.10;1.10;;;;;;;;;;10069091;28;20042;-71
2023/11/26 03:49:04;;;;;;;1.30;1.10;;;;;;;;;;10068805;28;20163;-71
2023/11/26 03:53:56;;;;;;;1.63;1.52;;;;;;;;;;10068530;28;20049;-71
2023/11/26 03:58:48;;;;;;;1.25;1.15;;;;;;;;;;10065786;28;20380;-71
2023/11/26 04:03:40;;;;;;;1.00;1.00;;;;;;;;;;10068320;28;20409;-71
2023/11/26 04:08:32;;;;;;;0.90;0.90;;;;;;;;;;10067637;28;20041;-71
2023/11/26 04:13:27;;;;;;;1.17;1.10;;;;;;;;;;10068027;28;20041;-71
2023/11/26 04:18:19;;;;;;;1.40;1.10;;;;;;;;;;10065710;28;20608;-71
2023/11/26 04:23:11;;;;;;;1.40;1.30;;;;;;;;;;10067028;28;20103;-71
2023/11/26 04:28:03;;;;;;;1.27;1.20;;;;;;;;;;10067249;28;20056;-71
2023/11/26 04:32:55;;;;;;;0.90;0.90;;;;;;;;;;10067612;28;20472;-71
2023/11/26 04:37:47;;;;;;;0.90;0.90;;;;;;;;;;10066472;28;20056;-71
2023/11/26 04:42:39;;;;;;;0.88;0.88;;;;;;;;;;10066759;28;20045;-71
2023/11/26 04:47:30;;;;;;;1.10;0.85;;;;;;;;;;10066273;28;20046;-72
2023/11/26 04:52:22;;;;;;;1.00;1.00;;;;;;;;;;10065920;28;20072;-71
2023/11/26 04:57:14;;;;;;;1.00;1.00;;;;;;;;;;10066623;28;20053;-71
2023/11/26 05:02:09;;;;;;;0.93;0.90;;;;;;;;;;10065369;28;20113;-71
2023/11/26 05:07:02;;;;;;;0.80;0.80;;;;;;;;;;10065374;28;20069;-71
2023/11/26 05:11:54;;;;;;;0.77;0.77;;;;;;;;;;10065313;28;20049;-71
2023/11/26 05:16:46;;;;;;;1.10;1.00;;;;;;;;;;10065422;28;20041;-71
2023/11/26 05:21:38;;;;;;;6.60;6.35;;;;;;;;;;10064335;28;20067;-71
2023/11/26 05:26:31;;;;;;;1.08;1.08;;;;;;;;;;10065297;28;20038;-71
2023/11/26 05:31:23;;;;;;;2.30;2.20;;;;;;;;;;10064875;28;20061;-71
2023/11/26 05:36:15;;;;;;;1.17;1.08;;;;;;;;;;10064506;28;20098;-71
2023/11/26 05:41:07;;;;;;;0.88;0.88;;;;;;;;;;10064241;28;20053;-71
2023/11/26 05:46:00;;;;;;;0.80;0.80;;;;;;;;;;10064215;28;20038;-71
2023/11/26 05:50:51;;;;;;;12.27;11.75;;;;;;;;;;10064604;28;20051;-72
2023/11/26 05:55:44;;;;;;;0.80;0.80;;;;;;;;;;10064154;28;20160;-71
2023/11/26 06:00:35;;;;;;;0.90;0.90;;;;;;;;;;10064106;28;20079;-71
2023/11/26 06:05:27;;;;;;;0.95;0.95;;;;;;;;;;10062924;28;20464;-71
2023/11/26 06:10:19;;;;;;;1.20;1.20;;;;;;;;;;10064727;28;20046;-71
2023/11/26 06:15:11;;;;;;;0.80;0.80;;;;;;;;;;10065762;28;20041;-71
2023/11/26 06:20:04;;;;;;;1.23;1.05;;;;;;;;;;10065535;28;20144;-71
2023/11/26 06:24:57;;;;;;;0.88;0.88;;;;;;;;;;10066005;28;20053;-71
2023/11/26 06:29:49;;;;;;;0.77;0.77;;;;;;;;;;10065837;28;20055;-71
2023/11/26 06:34:41;;;;;;;1.58;0.90;;;;;;;;;;10065301;28;20392;-71
2023/11/26 06:39:33;;;;;;;0.80;0.80;;;;;;;;;;10065162;28;20048;-71
2023/11/26 06:44:25;;;;;;;1.13;1.02;;;;;;;;;;10064710;28;20425;-71
2023/11/26 06:49:17;;;;;;;0.90;0.90;;;;;;;;;;10065435;28;20069;-72
2023/11/26 06:54:09;;;;;;;0.80;0.80;;;;;;;;;;10064523;28;20049;-72
2023/11/26 06:59:01;;;;;;;0.80;0.80;;;;;;;;;;10064157;28;20576;-72
2023/11/26 07:03:53;;;;;;;0.70;0.70;;;;;;;;;;10065068;28;20073;-71
2023/11/26 07:08:45;;;;;;;0.80;0.80;;;;;;;;;;10064686;28;20467;-71
2023/11/26 07:13:39;;;;;;;1.00;1.00;;;;;;;;;;10069776;28;20050;-71
2023/11/26 07:18:31;;;;;;;0.80;0.80;;;;;;;;;;10071665;28;20053;-71
2023/11/26 07:23:24;;;;;;;0.98;0.98;;;;;;;;;;10071101;28;20073;-71
2023/11/26 07:28:16;;;;;;;0.80;0.80;;;;;;;;;;10071625;28;20041;-72
2023/11/26 07:33:08;;;;;;;1.40;0.77;;;;;;;;;;10071958;28;20037;-72
2023/11/26 07:38:01;;;;;;;0.77;0.77;;;;;;;;;;10070361;28;20423;-71
2023/11/26 07:42:53;;;;;;;0.73;0.73;;;;;;;;;;10070935;28;20380;-71
2023/11/26 07:47:45;;;;;;;0.80;0.80;;;;;;;;;;10071437;28;20518;-71
2023/11/26 07:52:38;;;;;;;0.80;0.80;;;;;;;;;;10069760;28;20049;-72
2023/11/26 07:57:33;;;;;;;1.10;1.10;;;;;;;;;;10063964;28;20050;-72
2023/11/26 08:02:25;;;;;;;0.70;0.70;;;;;;;;;;10068768;28;20452;-72
2023/11/26 08:07:17;;;;;;;1.50;1.00;;;;;;;;;;10065455;28;20057;-72
2023/11/26 08:12:13;;;;;;;1.25;1.17;;;;;;;;;;10068220;28;20551;-72
2023/11/26 08:17:05;;;;;;;0.80;0.80;;;;;;;;;;10067959;28;20049;-71
2023/11/26 08:21:57;;;;;;;1.30;1.20;;;;;;;;;;10066705;28;20433;-72
2023/11/26 08:26:51;;;;;;;2.03;1.08;;;;;;;;;;10067497;28;20045;-72
2023/11/26 08:31:44;;;;;;;1.02;0.90;;;;;;;;;;10067559;28;20041;-72
2023/11/26 08:36:45;;;;;;;1.10;1.10;;;;;;;;;;10066760;28;20383;-72
2023/11/26 08:41:38;;;;;;;1.20;1.10;;;;;;;;;;10067098;28;20049;-72
2023/11/26 08:46:34;;;;;;;1.20;1.05;;;;;;;;;;10067158;28;20037;-72
2023/11/26 08:51:26;;;;;;;1.38;1.27;;;;;;;;;;10062647;28;20041;-72
2023/11/26 08:56:20;;;;;;;1.90;1.60;;;;;;;;;;10066616;28;20057;-72
2023/11/26 09:01:12;;;;;;;1.15;1.05;;;;;;;;;;10065554;28;20060;-72
2023/11/26 09:06:04;;;;;;;1.77;1.48;;;;;;;;;;10066498;28;20064;-72
2023/11/26 09:10:58;;;;;;;1.48;1.15;;;;;;;;;;10059547;28;20099;-71
2023/11/26 09:15:50;;;;;;;1.10;1.00;;;;;;;;;;10062378;28;20042;-72
2023/11/26 09:20:42;;;;;;;1.10;0.90;;;;;;;;;;10061448;28;20068;-71
2023/11/26 09:25:34;;;;;;;1.70;1.42;;;;;;;;;;10061770;28;20052;-72
2023/11/26 09:30:26;;;;;;;129.23;70.43;;;;;;;;;;10061780;28;20068;-72
2023/11/26 09:35:18;;;;;;;1.30;0.77;;;;;;;;;;10056492;28;20054;-71
2023/11/26 09:40:11;;;;;;;1.90;1.80;;;;;;;;;;10065985;28;20037;-71
2023/11/26 09:45:04;;;;;;;4.18;3.78;;;;;;;;;;10064887;28;20061;-72
2023/11/26 09:49:56;;;;;;;1.50;1.40;;;;;;;;;;10065183;28;20053;-73
2023/11/26 09:54:49;;;;;;;1.27;1.17;;;;;;;;;;10055918;28;20073;-77
2023/11/26 09:59:41;;;;;;;2.42;2.03;;;;;;;;;;10063252;28;20048;-76
2023/11/26 10:04:44;;;;;;;1.90;1.80;;;;;;;;;;10058980;28;20449;-72
2023/11/26 10:09:36;;;;;;;1.67;1.58;;;;;;;;;;10062420;28;20555;-72
2023/11/26 10:14:28;;;;;;;2.55;2.10;;;;;;;;;;10061206;28;20041;-74
2023/11/26 10:19:25;;;;;;;1.38;1.27;;;;;;;;;;10060323;28;20058;-74
2023/11/26 10:24:19;;;;;;;3.10;2.80;;;;;;;;;;10057844;28;20052;-74
2023/11/26 10:29:14;;;;;;;1.83;1.73;;;;;;;;;;10058452;28;20041;-75
2023/11/26 10:34:13;;;;;;;2.13;1.92;;;;;;;;;;10056608;28;20049;-74
2023/11/26 10:39:09;;;;;;;2.22;1.50;;;;;;;;;;10058481;28;20045;-74
2023/11/26 10:44:01;;;;;;;3.20;1.58;;;;;;;;;;10051914;28;20369;-74
2023/11/26 10:49:02;;;;;;;1.92;1.65;;;;;;;;;;10063314;28;20053;-74
2023/11/26 10:54:00;;;;;;;2.30;1.33;;;;;;;;;;10064003;28;20045;-74
2023/11/26 10:58:58;;;;;;;2.90;2.30;;;;;;;;;;10064051;28;20152;-74
2023/11/26 11:03:52;;;;;;;1.30;1.23;;;;;;;;;;10064583;28;20053;-74
2023/11/26 11:08:44;;;;;;;2.33;2.13;;;;;;;;;;10063246;28;20181;-74
2023/11/26 11:13:36;;;;;;;3.40;1.40;;;;;;;;;;10062466;28;20377;-74
2023/11/26 11:18:28;;;;;;;1.35;1.25;;;;;;;;;;10064147;28;20491;-74
2023/11/26 11:23:37;;;;;;;3.38;1.58;;;;;;;;;;10064082;28;20443;-74
2023/11/26 11:28:49;;;;;;;2.20;2.08;;;;;;;;;;10062884;28;20041;-75
2023/11/26 11:33:56;;;;;;;12.13;10.80;;;;;;;;;;10061860;28;20185;-75
2023/11/26 11:39:06;;;;;;;11.40;4.13;;;;;;;;;;10062934;28;20080;-73
2023/11/26 11:44:24;;;;;;;2.08;1.90;;;;;;;;;;10061993;28;20129;-74
2023/11/26 11:49:16;;;;;;;2.78;2.47;;;;;;;;;;10055949;28;20049;-75
2023/11/26 11:54:11;;;;;;;2.85;1.75;;;;;;;;;;10062848;28;20064;-76
2023/11/26 11:59:03;;;;;;;25.50;13.77;;;;;;;;;;10062182;28;20436;-76
2023/11/26 12:04:00;;;;;;;9.15;6.78;;;;;;;;;;10061961;28;20053;-75
2023/11/26 12:09:00;;;;;;;6.88;4.38;;;;;;;;;;10062123;28;20052;-75
2023/11/26 12:13:51;;;;;;;1.08;0.98;;;;;;;;;;10061739;28;20096;-75
2023/11/26 12:18:43;;;;;;;2.67;2.20;;;;;;;;;;10060920;28;21044;-74
2023/11/26 12:23:38;;;;;;;1.20;1.10;;;;;;;;;;10060126;28;20103;-74
2023/11/26 12:28:41;;;;;;;57.85;21.52;;;;;;;;;;10061126;28;20087;-76
2023/11/26 12:33:33;;;;;;;0.93;0.85;;;;;;;;;;10052835;28;20041;-76
2023/11/26 12:38:26;;;;;;;2.08;1.70;;;;;;;;;;10063650;28;20468;-75
2023/11/26 12:43:18;;;;;;;3.50;2.67;;;;;;;;;;10064257;28;20057;-73
2023/11/26 12:48:10;;;;;;;2.90;2.42;;;;;;;;;;10059471;28;20041;-75
2023/11/26 12:53:03;;;;;;;1.20;1.10;;;;;;;;;;10063662;28;20140;-75
2023/11/26 12:57:56;;;;;;;4.13;2.95;;;;;;;;;;10065257;28;20037;-75
2023/11/26 13:03:04;;;;;;;4.32;2.90;;;;;;;;;;10062860;28;20472;-74
2023/11/26 13:07:58;;;;;;;1.17;1.02;;;;;;;;;;10062702;28;20468;-73
2023/11/26 13:12:50;;;;;;;3.92;2.00;;;;;;;;;;10063190;28;20079;-72
2023/11/26 13:17:42;;;;;;;0.98;0.90;;;;;;;;;;10062003;28;20451;-72
2023/11/26 13:22:35;;;;;;;1.25;1.02;;;;;;;;;;10061066;28;20041;-73
2023/11/26 13:27:27;;;;;;;3.30;1.13;;;;;;;;;;10063283;28;20061;-72
2023/11/26 13:32:19;;;;;;;1.48;1.10;;;;;;;;;;10063729;28;20069;-72
2023/11/26 13:37:12;;;;;;;1.08;0.98;;;;;;;;;;10063530;28;20049;-73
2023/11/26 13:42:04;;;;;;;2.88;1.00;;;;;;;;;;10061981;28;20111;-77
2023/11/26 13:46:56;;;;;;;0.75;0.75;;;;;;;;;;10060690;28;20041;-75
2023/11/26 13:51:48;;;;;;;0.70;0.70;;;;;;;;;;10059073;28;20037;-76
2023/11/26 13:56:42;;;;;;;2.28;1.33;;;;;;;;;;10061072;28;20057;-76
2023/11/26 14:01:36;;;;;;;0.90;0.90;;;;;;;;;;10057809;28;20525;-76
2023/11/26 14:06:28;;;;;;;1.20;1.08;;;;;;;;;;10060897;28;20132;-75
2023/11/26 14:11:21;;;;;;;5.07;3.92;;;;;;;;;;10063279;28;20427;-75
2023/11/26 14:16:15;;;;;;;4.90;3.08;;;;;;;;;;10065221;28;20059;-74
2023/11/26 14:21:07;;;;;;;6.90;4.60;;;;;;;;;;10068061;28;20046;-75
2023/11/26 14:25:59;;;;;;;4.65;3.30;;;;;;;;;;10072365;28;20072;-75
2023/11/26 14:30:51;;;;;;;2.63;1.90;;;;;;;;;;10072485;28;20041;-75
2023/11/26 14:35:46;;;;;;;1.90;1.38;;;;;;;;;;10072247;28;20067;-74
2023/11/26 14:40:38;;;;;;;5.68;2.85;;;;;;;;;;10071019;28;20593;-77
2023/11/26 14:45:30;;;;;;;2.85;2.53;;;;;;;;;;10072964;28;20088;-76
2023/11/26 14:50:23;;;;;;;5.28;1.52;;;;;;;;;;10071493;28;20044;-76
2023/11/26 14:55:15;;;;;;;1.17;0.93;;;;;;;;;;10071685;28;20065;-76
2023/11/26 15:00:08;;;;;;;2.75;1.83;;;;;;;;;;10070457;28;20119;-76
2023/11/26 15:05:00;;;;;;;3.58;2.20;;;;;;;;;;10071227;28;20495;-77
2023/11/26 15:09:52;;;;;;;9.18;7.20;;;;;;;;;;10070648;28;20139;-73
2023/11/26 15:14:44;;;;;;;7.57;4.85;;;;;;;;;;10071345;28;20042;-74
2023/11/26 15:19:36;;;;;;;4.63;3.28;;;;;;;;;;10069892;28;20060;-74
2023/11/26 15:24:28;;;;;;;6.20;4.20;;;;;;;;;;10069992;28;20042;-74
2023/11/26 15:29:21;;;;;;;7.65;3.78;;;;;;;;;;10069589;28;20046;-77
2023/11/26 15:34:13;;;;;;;4.90;2.75;;;;;;;;;;10066565;28;20049;-72
2023/11/26 15:39:05;;;;;;;5.43;2.28;;;;;;;;;;10066639;28;20130;-73
2023/11/26 15:43:57;;;;;;;3.35;2.35;;;;;;;;;;10068006;28;20041;-70
2023/11/26 15:48:49;;;;;;;2.28;2.00;;;;;;;;;;10066709;28;20388;-71
2023/11/26 15:53:41;;;;;;;3.95;2.25;;;;;;;;;;10066888;28;20380;-73
2023/11/26 15:58:52;;;;;;;3.45;2.50;;;;;;;;;;10067056;28;20041;-74
2023/11/26 16:03:44;;;;;;;1.77;1.67;;;;;;;;;;10066295;28;20091;-73
2023/11/26 16:08:37;;;;;;;1.38;0.90;;;;;;;;;;10065674;28;20057;-73
2023/11/26 16:13:29;;;;;;;1.27;1.17;;;;;;;;;;10066321;28;20049;-73
2023/11/26 16:18:23;;;;;;;2.53;1.27;;;;;;;;;;10065991;28;20104;-73
2023/11/26 16:23:15;;;;;;;1.60;1.17;;;;;;;;;;10066135;28;20073;-73
2023/11/26 16:28:07;;;;;;;1.42;1.33;;;;;;;;;;10065450;28;20363;-73
2023/11/26 16:33:00;;;;;;;1.70;1.58;;;;;;;;;;10059419;28;20049;-73
2023/11/26 16:37:53;;;;;;;1.73;1.52;;;;;;;;;;10065840;28;20059;-74
2023/11/26 16:42:45;;;;;;;2.05;1.85;;;;;;;;;;10066519;28;20096;-74
2023/11/26 16:47:37;;;;;;;2.80;1.70;;;;;;;;;;10067880;28;20129;-74
2023/11/26 16:52:30;;;;;;;2.20;1.50;;;;;;;;;;10068560;28;20068;-74
2023/11/26 16:57:23;;;;;;;1.60;1.38;;;;;;;;;;10068735;28;20053;-73
2023/11/26 17:02:17;;;;;;;1.65;1.50;;;;;;;;;;10066738;28;20072;-74
2023/11/26 17:07:09;;;;;;;1.60;1.50;;;;;;;;;;10066430;28;20069;-74
2023/11/26 17:12:01;;;;;;;2.78;1.80;;;;;;;;;;10066558;28;20042;-74
2023/11/26 17:16:53;;;;;;;2.08;1.88;;;;;;;;;;10066673;28;20045;-73
2023/11/26 17:21:49;;;;;;;2.15;1.92;;;;;;;;;;10066948;28;20069;-74
2023/11/26 17:26:41;;;;;;;3.08;1.95;;;;;;;;;;10066971;28;20080;-74
2023/11/26 17:31:35;;;;;;;3.50;2.20;;;;;;;;;;10065774;28;20107;-74
2023/11/26 17:36:30;;;;;;;3.40;1.35;;;;;;;;;;10066404;28;21435;-74
2023/11/26 17:41:22;;;;;;;2.03;1.42;;;;;;;;;;10065603;28;20050;-74
2023/11/26 17:46:14;;;;;;;8.38;2.45;;;;;;;;;;10066063;28;20151;-74
2023/11/26 17:51:06;;;;;;;1.40;1.30;;;;;;;;;;10065703;28;20037;-74
2023/11/26 17:55:59;;;;;;;4.65;2.90;;;;;;;;;;10064277;28;20052;-76
2023/11/26 18:00:51;;;;;;;5.03;3.80;;;;;;;;;;10064973;28;20037;-74
2023/11/26 18:05:44;;;;;;;5.93;3.45;;;;;;;;;;10063740;28;20135;-74
2023/11/26 18:10:36;;;;;;;2.30;1.98;;;;;;;;;;10063898;28;20040;-74
2023/11/26 18:15:28;;;;;;;16.52;12.77;;;;;;;;;;10064656;28;20064;-74
2023/11/26 18:20:21;;;;;;;4.03;3.00;;;;;;;;;;10060393;28;20142;-74
2023/11/26 18:25:13;;;;;;;3.03;2.72;;;;;;;;;;10061522;28;20081;-74
2023/11/26 18:30:06;;;;;;;5.20;3.85;;;;;;;;;;10046239;28;20058;-74
2023/11/26 18:34:58;;;;;;;5.45;3.88;;;;;;;;;;10063297;28;20225;-76
2023/11/26 18:39:50;;;;;;;7.07;3.13;;;;;;;;;;10064155;28;20057;-77
2023/11/26 18:44:42;;;;;;;2.35;2.15;;;;;;;;;;10061748;28;20053;-76
2023/11/26 18:49:34;;;;;;;5.15;3.97;;;;;;;;;;10062234;28;20468;-74
2023/11/26 18:54:26;;;;;;;5.35;3.75;;;;;;;;;;10063090;28;20132;-77
2023/11/26 18:59:19;;;;;;;3.38;1.98;;;;;;;;;;10060167;28;20049;-77
2023/11/26 19:04:11;;;;;;;3.83;2.80;;;;;;;;;;10057844;28;20087;-75
2023/11/26 19:09:03;;;;;;;13.10;6.45;;;;;;;;;;10060883;28;20409;-75
2023/11/26 19:13:55;;;;;;;12.25;7.90;;;;;;;;;;10062471;28;20099;-76
2023/11/26 19:18:49;;;;;;;3.60;2.22;;;;;;;;;;10060387;28;20061;-76
2023/11/26 19:23:42;;;;;;;6.32;4.95;;;;;;;;;;10065312;28;20049;-76
2023/11/26 19:28:34;;;;;;;10.45;4.05;;;;;;;;;;10065788;28;20046;-77
2023/11/26 19:33:26;;;;;;;4.30;2.53;;;;;;;;;;10067428;28;20049;-75
2023/11/26 19:38:20;;;;;;;4.53;3.30;;;;;;;;;;10068771;28;20566;-75
2023/11/26 19:43:12;;;;;;;10.18;5.93;;;;;;;;;;10068529;28;20046;-74
2023/11/26 19:48:04;;;;;;;3.25;2.10;;;;;;;;;;10068453;28;20044;-74
2023/11/26 19:52:56;;;;;;;5.13;2.63;;;;;;;;;;10068631;28;20087;-75
2023/11/26 19:57:48;;;;;;;4.68;2.22;;;;;;;;;;10069406;28;20037;-75
2023/11/26 20:02:41;;;;;;;2.50;2.30;;;;;;;;;;10066008;28;20045;-75
2023/11/26 20:07:33;;;;;;;3.17;1.98;;;;;;;;;;10065336;28;20365;-75
2023/11/26 20:12:25;;;;;;;7.85;4.93;;;;;;;;;;10049422;28;20465;-75
2023/11/26 20:17:19;;;;;;;9.70;6.70;;;;;;;;;;10065519;28;20060;-72
2023/11/26 20:22:11;;;;;;;10.63;7.78;;;;;;;;;;10058232;28;20050;-72
2023/11/26 20:27:03;;;;;;;13.68;8.52;;;;;;;;;;10055268;28;20081;-72
2023/11/26 20:31:55;;;;;;;10.35;7.28;;;;;;;;;;10048612;28;20037;-72
2023/11/26 20:36:47;;;;;;;11.70;7.82;;;;;;;;;;10045877;28;20045;-73
2023/11/26 20:41:39;;;;;;;14.32;10.27;;;;;;;;;;10061301;28;20045;-72
2023/11/26 20:46:31;;;;;;;14.02;9.45;;;;;;;;;;10062280;28;20045;-72
2023/11/26 20:51:28;;;;;;;13.73;10.00;;;;;;;;;;10044991;28;20045;-72
2023/11/26 20:56:21;;;;;;;9.27;5.97;;;;;;;;;;10045048;28;20400;-72
2023/11/26 21:01:13;;;;;;;8.43;5.70;;;;;;;;;;10059763;28;20051;-72
2023/11/26 21:06:07;;;;;;;7.75;4.60;;;;;;;;;;10053403;28;20044;-72
2023/11/26 21:10:59;;;;;;;6.20;4.30;;;;;;;;;;10060855;28;20056;-72
2023/11/26 21:15:50;;;;;;;8.48;4.10;;;;;;;;;;10058562;28;20077;-72
2023/11/26 21:20:42;;;;;;;4.45;4.03;;;;;;;;;;10052176;28;20046;-72
2023/11/26 21:25:35;;;;;;;3.65;3.15;;;;;;;;;;10057246;28;20451;-72
2023/11/26 21:30:27;;;;;;;4.15;3.38;;;;;;;;;;10047923;28;20081;-72
2023/11/26 21:35:19;;;;;;;6.65;3.25;;;;;;;;;;10061144;28;20099;-72
2023/11/26 21:40:11;;;;;;;4.82;2.58;;;;;;;;;;10065811;28;20132;-72
2023/11/26 21:45:05;;;;;;;2.88;2.63;;;;;;;;;;10061548;28;20441;-72
2023/11/26 21:49:56;;;;;;;5.40;3.20;;;;;;;;;;10057519;28;20072;-72
2023/11/26 21:54:50;;;;;;;5.22;2.50;;;;;;;;;;10061557;28;20124;-72
2023/11/26 21:59:42;;;;;;;3.85;3.00;;;;;;;;;;10055149;28;20060;-72
2023/11/26 22:04:35;;;;;;;4.03;2.70;;;;;;;;;;10063748;28;20484;-73
2023/11/26 22:09:28;;;;;;;3.13;2.53;;;;;;;;;;10055910;28;20535;-72
2023/11/26 22:14:19;;;;;;;4.75;3.03;;;;;;;;;;10052922;28;20373;-72
2023/11/26 22:19:11;;;;;;;3.65;2.85;;;;;;;;;;10062503;28;20053;-73
2023/11/26 22:24:03;;;;;;;3.45;3.15;;;;;;;;;;10072704;28;20048;-72
2023/11/26 22:28:59;;;;;;;4.80;2.50;;;;;;;;;;10063559;28;20045;-73
2023/11/26 22:33:50;;;;;;;3.13;2.78;;;;;;;;;;10062684;28;20050;-73
2023/11/26 22:38:42;;;;;;;2.95;2.70;;;;;;;;;;10063051;28;20050;-73
2023/11/26 22:43:35;;;;;;;5.75;3.22;;;;;;;;;;10059176;28;20467;-72
2023/11/26 22:48:27;;;;;;;4.90;2.88;;;;;;;;;;10069593;28;20052;-72
2023/11/26 22:53:19;;;;;;;3.30;3.00;;;;;;;;;;10063693;28;20183;-72
2023/11/26 22:58:11;;;;;;;3.75;3.00;;;;;;;;;;10067087;28;20144;-72
2023/11/26 23:03:03;;;;;;;3.30;3.00;;;;;;;;;;10076993;28;20037;-71
2023/11/26 23:07:55;;;;;;;3.00;2.78;;;;;;;;;;10072953;28;20049;-74
2023/11/26 23:12:47;;;;;;;3.35;3.05;;;;;;;;;;10073074;28;20037;-72
2023/11/26 23:17:39;;;;;;;4.35;3.42;;;;;;;;;;10072205;28;20088;-72
2023/11/26 23:22:31;;;;;;;3.42;3.13;;;;;;;;;;10072793;28;20045;-74
2023/11/26 23:27:22;;;;;;;3.40;3.10;;;;;;;;;;10072742;28;20463;-73
2023/11/26 23:32:14;;;;;;;5.28;3.33;;;;;;;;;;10072402;28;20052;-73
2023/11/26 23:37:06;;;;;;;3.60;3.30;;;;;;;;;;10072128;28;20049;-73
2023/11/26 23:41:58;;;;;;;3.90;3.47;;;;;;;;;;10071983;28;20037;-73
2023/11/26 23:46:50;;;;;;;3.47;3.17;;;;;;;;;;10071682;28;20049;-71
2023/11/26 23:51:43;;;;;;;3.05;2.85;;;;;;;;;;10072089;28;20049;-74
2023/11/26 23:56:35;;;;;;;6.95;3.33;;;;;;;;;;10070270;28;20070;-73
